Putman, Connecticut
Current Conditions -  °F | °C
As of 12:52 AM on Sunday 26 Oct 2014 (Local Time) from KIJD Reporting Station
Few Clouds Few Clouds  
Wind Chill: 51°   Ceiling: Unl
Heat Index: 51°   Visibility: 10mi
Dew Point: 46°   Wind: 0mph
Humidity: 83%   Direction: NA
Pressure: 29.54"   Gusts: NA
Location:  41.91°N, 71.8739°W
Report Text: KIJD 260452Z AUTO 00000KT 10SM FEW075 FEW100 11/08 A2954 RMK AO2 SLP001 T01060078 401830033
Loading
Personal Weather Stations






























Interactive Weather Map
Tropical Storm Tracking
New forecast layout! Learn more

10-Day Weather Forecast

Advertisements
Track Severe Weather on mobile